ANA467 RJTT-ROAH
Flight info
| Callsign | ANA467 |
|---|---|
| Flight time | 2h 13m |
| Altitude | 38000 |
| Route | LAXAS Y56 TOHME Y54 KOHWA Y12 AYANO Y128 LAXEL Y52 TONAR Y525 IHEYA |
| Aircraft | B77W/H-SDE1E2E3FGHIJ2J3J4J5M1RWXY/LB1D1 |
Departure
| Time | 2026-04-21 20:10 |
|---|---|
| Airport | Tokyo Haneda International Airport (RJTT) |
Arrival
| Time | 2026-04-21 22:24 |
|---|---|
| Airport | Naha International Airport (ROAH) |
| Time | Latitude | Longitude | Altitude | Speed | Heading |
|---|---|---|---|---|---|
| 2026-04-21 20:01 | 35.55038 | 139.79138 | 28 ft | 3 kts | 185° |
| 2026-04-21 20:01 | 35.55057 | 139.79136 | 28 ft | 3 kts | 158° |
| 2026-04-21 20:01 | 35.55069 | 139.79129 | 27 ft | 1 kts | 150° |
| 2026-04-21 20:02 | 35.55069 | 139.79128 | 27 ft | 0 kts | 150° |
| 2026-04-21 20:03 | 35.55056 | 139.79143 | 27 ft | 8 kts | 134° |
| 2026-04-21 20:03 | 35.55045 | 139.79211 | 27 ft | 8 kts | 79° |
| 2026-04-21 20:03 | 35.55067 | 139.79277 | 29 ft | 8 kts | 71° |
| 2026-04-21 20:04 | 35.55059 | 139.79347 | 29 ft | 10 kts | 127° |
| 2026-04-21 20:04 | 35.54983 | 139.79413 | 29 ft | 18 kts | 149° |
| 2026-04-21 20:04 | 35.54852 | 139.79505 | 29 ft | 26 kts | 150° |
| 2026-04-21 20:04 | 35.54717 | 139.79601 | 29 ft | 22 kts | 150° |
| 2026-04-21 20:05 | 35.54585 | 139.79695 | 29 ft | 22 kts | 150° |
| 2026-04-21 20:05 | 35.54452 | 139.79789 | 29 ft | 22 kts | 150° |
| 2026-04-21 20:05 | 35.54321 | 139.79881 | 29 ft | 22 kts | 150° |
| 2026-04-21 20:05 | 35.54189 | 139.79976 | 28 ft | 22 kts | 148° |
| 2026-04-21 20:06 | 35.54057 | 139.80071 | 29 ft | 22 kts | 150° |
| 2026-04-21 20:06 | 35.53923 | 139.80164 | 29 ft | 22 kts | 150° |
| 2026-04-21 20:06 | 35.53775 | 139.80180 | 29 ft | 22 kts | 179° |
| 2026-04-21 20:06 | 35.53626 | 139.80214 | 28 ft | 22 kts | 159° |
| 2026-04-21 20:07 | 35.53494 | 139.80309 | 28 ft | 22 kts | 149° |
| 2026-04-21 20:07 | 35.53363 | 139.80402 | 28 ft | 22 kts | 150° |
| 2026-04-21 20:07 | 35.53229 | 139.80493 | 28 ft | 22 kts | 150° |
| 2026-04-21 20:07 | 35.53097 | 139.80586 | 28 ft | 22 kts | 150° |
| 2026-04-21 20:08 | 35.52986 | 139.80544 | 28 ft | 18 kts | 224° |
| 2026-04-21 20:08 | 35.52890 | 139.80441 | 28 ft | 18 kts | 220° |
| 2026-04-21 20:08 | 35.52795 | 139.80335 | 28 ft | 18 kts | 223° |
| 2026-04-21 20:08 | 35.52702 | 139.80228 | 28 ft | 18 kts | 224° |
| 2026-04-21 20:09 | 35.52600 | 139.80143 | 28 ft | 18 kts | 182° |
| 2026-04-21 20:09 | 35.52502 | 139.80239 | 28 ft | 18 kts | 133° |
| 2026-04-21 20:09 | 35.52435 | 139.80359 | 28 ft | 15 kts | 94° |
| 2026-04-21 20:09 | 35.52457 | 139.80400 | 28 ft | 12 kts | 42° |
| 2026-04-21 20:10 | 35.52740 | 139.80726 | 28 ft | 99 kts | 42° |
| 2026-04-21 20:10 | 35.53445 | 139.81512 | 29 ft | 171 kts | 43° |
| 2026-04-21 20:10 | 35.54406 | 139.82561 | 455 ft | 192 kts | 40° |
| 2026-04-21 20:10 | 35.55480 | 139.83687 | 906 ft | 218 kts | 43° |
| 2026-04-21 20:11 | 35.56522 | 139.85190 | 1165 ft | 245 kts | 68° |
| 2026-04-21 20:11 | 35.56852 | 139.87226 | 1986 ft | 247 kts | 95° |
| 2026-04-21 20:11 | 35.56507 | 139.89300 | 2679 ft | 252 kts | 115° |
| 2026-04-21 20:11 | 35.55779 | 139.91265 | 3503 ft | 258 kts | 118° |
| 2026-04-21 20:12 | 35.54930 | 139.93218 | 4353 ft | 260 kts | 128° |
| 2026-04-21 20:12 | 35.53529 | 139.94613 | 5126 ft | 264 kts | 159° |
| 2026-04-21 20:12 | 35.51733 | 139.95013 | 5998 ft | 264 kts | 185° |
| 2026-04-21 20:12 | 35.49928 | 139.94667 | 6818 ft | 264 kts | 194° |
| 2026-04-21 20:13 | 35.48099 | 139.94220 | 7597 ft | 270 kts | 194° |
| 2026-04-21 20:13 | 35.46253 | 139.93724 | 8380 ft | 270 kts | 202° |
| 2026-04-21 20:13 | 35.44676 | 139.92490 | 9020 ft | 270 kts | 228° |
| 2026-04-21 20:13 | 35.43404 | 139.90775 | 9737 ft | 275 kts | 230° |
| 2026-04-21 20:14 | 35.42107 | 139.89043 | 10473 ft | 282 kts | 230° |
| 2026-04-21 20:14 | 35.40724 | 139.87197 | 10757 ft | 308 kts | 230° |
| 2026-04-21 20:14 | 35.39210 | 139.85174 | 10976 ft | 336 kts | 230° |
| 2026-04-21 20:14 | 35.37571 | 139.82990 | 11453 ft | 354 kts | 230° |
| 2026-04-21 20:15 | 35.35886 | 139.80754 | 12365 ft | 360 kts | 230° |
| 2026-04-21 20:15 | 35.34179 | 139.78490 | 13514 ft | 362 kts | 230° |
| 2026-04-21 20:15 | 35.32480 | 139.76241 | 14574 ft | 364 kts | 231° |
| 2026-04-21 20:15 | 35.30741 | 139.73975 | 15586 ft | 367 kts | 229° |
| 2026-04-21 20:16 | 35.28838 | 139.71854 | 16540 ft | 373 kts | 225° |
| 2026-04-21 20:16 | 35.26832 | 139.69808 | 17532 ft | 377 kts | 224° |
| 2026-04-21 20:16 | 35.24799 | 139.67767 | 18502 ft | 379 kts | 224° |
| 2026-04-21 20:16 | 35.22755 | 139.65695 | 19272 ft | 383 kts | 225° |
| 2026-04-21 20:17 | 35.20695 | 139.63579 | 20029 ft | 388 kts | 225° |
| 2026-04-21 20:17 | 35.18618 | 139.61427 | 20795 ft | 393 kts | 226° |
| 2026-04-21 20:17 | 35.16549 | 139.59275 | 21551 ft | 397 kts | 226° |
| 2026-04-21 20:17 | 35.14438 | 139.57076 | 22284 ft | 401 kts | 226° |
| 2026-04-21 20:18 | 35.12996 | 139.55575 | 22756 ft | 404 kts | 226° |
| 2026-04-21 20:18 | 35.10139 | 139.52602 | 23676 ft | 408 kts | 227° |
| 2026-04-21 20:18 | 35.08254 | 139.50054 | 24052 ft | 403 kts | 241° |
| 2026-04-21 20:18 | 35.06970 | 139.47024 | 24610 ft | 401 kts | 252° |
| 2026-04-21 20:19 | 35.06266 | 139.43760 | 25282 ft | 397 kts | 261° |
| 2026-04-21 20:19 | 35.05759 | 139.40437 | 25909 ft | 398 kts | 261° |
| 2026-04-21 20:19 | 35.05240 | 139.37101 | 26504 ft | 401 kts | 260° |
| 2026-04-21 20:19 | 35.04701 | 139.33750 | 27099 ft | 403 kts | 260° |
| 2026-04-21 20:20 | 35.04152 | 139.30431 | 27686 ft | 405 kts | 260° |
| 2026-04-21 20:20 | 35.03583 | 139.27052 | 28229 ft | 407 kts | 259° |
| 2026-04-21 20:20 | 35.03009 | 139.23654 | 28772 ft | 409 kts | 259° |
| 2026-04-21 20:20 | 35.02437 | 139.20231 | 29255 ft | 412 kts | 259° |
| 2026-04-21 20:21 | 35.01868 | 139.16801 | 29716 ft | 414 kts | 259° |
| 2026-04-21 20:21 | 35.01297 | 139.13357 | 30202 ft | 414 kts | 259° |
| 2026-04-21 20:21 | 35.00725 | 139.09914 | 30717 ft | 412 kts | 259° |
| 2026-04-21 20:21 | 35.00154 | 139.06493 | 31297 ft | 410 kts | 260° |
| 2026-04-21 20:22 | 34.99587 | 139.03097 | 31749 ft | 409 kts | 260° |
| 2026-04-21 20:22 | 34.98661 | 138.96314 | 32673 ft | 407 kts | 265° |
| 2026-04-21 20:22 | 34.98490 | 138.92827 | 33133 ft | 406 kts | 267° |
| 2026-04-21 20:23 | 34.98326 | 138.89436 | 33559 ft | 405 kts | 266° |
| 2026-04-21 20:23 | 34.98150 | 138.85997 | 33932 ft | 406 kts | 266° |
| 2026-04-21 20:23 | 34.97968 | 138.82535 | 34177 ft | 408 kts | 266° |
| 2026-04-21 20:23 | 34.97786 | 138.79108 | 34547 ft | 407 kts | 266° |
| 2026-04-21 20:24 | 34.97601 | 138.75674 | 34946 ft | 406 kts | 266° |
| 2026-04-21 20:24 | 34.97416 | 138.72260 | 35299 ft | 405 kts | 266° |
| 2026-04-21 20:24 | 34.97230 | 138.68818 | 35614 ft | 405 kts | 266° |
| 2026-04-21 20:24 | 34.97043 | 138.65383 | 35914 ft | 405 kts | 266° |
| 2026-04-21 20:25 | 34.96855 | 138.61950 | 36080 ft | 408 kts | 266° |
| 2026-04-21 20:25 | 34.96667 | 138.58526 | 36322 ft | 408 kts | 266° |
| 2026-04-21 20:25 | 34.96475 | 138.55046 | 36657 ft | 406 kts | 266° |
| 2026-04-21 20:25 | 34.96285 | 138.51619 | 37024 ft | 404 kts | 266° |
| 2026-04-21 20:26 | 34.96097 | 138.48243 | 37427 ft | 402 kts | 266° |
| 2026-04-21 20:26 | 34.95907 | 138.44855 | 37765 ft | 400 kts | 266° |
| 2026-04-21 20:26 | 34.95715 | 138.41440 | 37958 ft | 401 kts | 266° |
| 2026-04-21 20:26 | 34.95523 | 138.38039 | 38017 ft | 405 kts | 266° |
| 2026-04-21 20:27 | 34.95132 | 138.31185 | 38066 ft | 403 kts | 266° |
| 2026-04-21 20:27 | 34.94810 | 138.25571 | 38083 ft | 398 kts | 266° |
| 2026-04-21 20:28 | 34.94354 | 138.17746 | 38069 ft | 395 kts | 266° |
| 2026-04-21 20:28 | 34.93966 | 138.11099 | 38091 ft | 395 kts | 266° |
| 2026-04-21 20:29 | 34.93573 | 138.04378 | 38085 ft | 398 kts | 266° |
| 2026-04-21 20:29 | 34.93176 | 137.97627 | 38089 ft | 401 kts | 266° |
| 2026-04-21 20:30 | 34.92768 | 137.90823 | 38096 ft | 403 kts | 266° |
| 2026-04-21 20:30 | 34.92356 | 137.83982 | 38115 ft | 405 kts | 266° |
| 2026-04-21 20:31 | 34.91950 | 137.77111 | 38106 ft | 406 kts | 266° |
| 2026-04-21 20:31 | 34.91442 | 137.70279 | 38103 ft | 408 kts | 262° |
| 2026-04-21 20:32 | 34.90157 | 137.63503 | 38093 ft | 411 kts | 255° |
| 2026-04-21 20:32 | 34.88202 | 137.56942 | 38086 ft | 411 kts | 252° |
| 2026-04-21 20:33 | 34.86218 | 137.50443 | 38099 ft | 411 kts | 253° |
| 2026-04-21 20:33 | 34.84274 | 137.43906 | 38092 ft | 410 kts | 254° |
| 2026-04-21 20:34 | 34.82414 | 137.37342 | 38074 ft | 410 kts | 254° |
| 2026-04-21 20:34 | 34.80552 | 137.30771 | 38092 ft | 409 kts | 254° |
| 2026-04-21 20:35 | 34.78691 | 137.24250 | 38089 ft | 409 kts | 254° |
| 2026-04-21 20:35 | 34.76809 | 137.17690 | 38087 ft | 409 kts | 253° |
| 2026-04-21 20:36 | 34.74938 | 137.11182 | 38093 ft | 410 kts | 253° |
| 2026-04-21 20:36 | 34.73047 | 137.04617 | 38092 ft | 409 kts | 253° |
| 2026-04-21 20:37 | 34.70741 | 136.98292 | 38088 ft | 414 kts | 242° |
| 2026-04-21 20:37 | 34.67161 | 136.92803 | 38076 ft | 422 kts | 231° |
| 2026-04-21 20:38 | 34.62520 | 136.88262 | 38081 ft | 430 kts | 224° |
| 2026-04-21 20:38 | 34.57705 | 136.83931 | 38095 ft | 431 kts | 224° |
| 2026-04-21 20:39 | 34.53704 | 136.80293 | 38094 ft | 431 kts | 224° |
| 2026-04-21 20:39 | 34.48119 | 136.75164 | 38087 ft | 432 kts | 224° |
| 2026-04-21 20:40 | 34.43336 | 136.70765 | 38093 ft | 433 kts | 224° |
| 2026-04-21 20:40 | 34.38535 | 136.66355 | 38091 ft | 434 kts | 224° |
| 2026-04-21 20:41 | 34.34502 | 136.62656 | 38089 ft | 434 kts | 224° |
| 2026-04-21 20:41 | 34.29701 | 136.58259 | 38095 ft | 433 kts | 224° |
| 2026-04-21 20:42 | 34.24965 | 136.53822 | 38090 ft | 433 kts | 225° |
| 2026-04-21 20:42 | 34.20197 | 136.49327 | 38092 ft | 433 kts | 225° |
| 2026-04-21 20:43 | 34.15466 | 136.44888 | 38090 ft | 433 kts | 225° |
| 2026-04-21 20:43 | 34.10674 | 136.40442 | 38090 ft | 435 kts | 223° |
| 2026-04-21 20:44 | 34.05422 | 136.36681 | 38081 ft | 444 kts | 215° |
| 2026-04-21 20:44 | 33.99914 | 136.33252 | 38086 ft | 444 kts | 215° |
| 2026-04-21 20:45 | 33.94429 | 136.29819 | 38091 ft | 446 kts | 215° |
| 2026-04-21 20:45 | 33.88911 | 136.26351 | 38089 ft | 447 kts | 215° |
| 2026-04-21 20:46 | 33.83407 | 136.22890 | 38086 ft | 448 kts | 215° |
| 2026-04-21 20:46 | 33.77875 | 136.19415 | 38083 ft | 449 kts | 215° |
| 2026-04-21 20:47 | 33.72340 | 136.15945 | 38061 ft | 449 kts | 214° |
| 2026-04-21 20:47 | 33.66790 | 136.12471 | 38082 ft | 450 kts | 214° |
| 2026-04-21 20:48 | 33.61230 | 136.08993 | 38082 ft | 451 kts | 214° |
| 2026-04-21 20:48 | 33.55654 | 136.05511 | 38089 ft | 451 kts | 214° |
| 2026-04-21 20:49 | 33.50110 | 136.02055 | 38052 ft | 451 kts | 214° |
| 2026-04-21 20:49 | 33.44530 | 135.98582 | 38069 ft | 451 kts | 214° |
| 2026-04-21 20:50 | 33.38950 | 135.95114 | 38064 ft | 451 kts | 214° |
| 2026-04-21 20:50 | 33.33418 | 135.91681 | 38070 ft | 451 kts | 214° |
| 2026-04-21 20:51 | 33.27838 | 135.88221 | 38071 ft | 452 kts | 214° |
| 2026-04-21 20:51 | 33.22244 | 135.84757 | 38059 ft | 452 kts | 213° |
| 2026-04-21 20:52 | 33.16638 | 135.81294 | 38071 ft | 452 kts | 213° |
| 2026-04-21 20:52 | 33.11036 | 135.77838 | 38072 ft | 453 kts | 213° |
| 2026-04-21 20:53 | 33.05446 | 135.74393 | 38067 ft | 454 kts | 213° |
| 2026-04-21 20:53 | 32.99836 | 135.70941 | 38072 ft | 454 kts | 213° |
| 2026-04-21 20:54 | 32.94224 | 135.67491 | 38063 ft | 455 kts | 213° |
| 2026-04-21 20:54 | 32.88578 | 135.64028 | 38071 ft | 455 kts | 213° |
| 2026-04-21 20:55 | 32.82950 | 135.60580 | 38065 ft | 456 kts | 213° |
| 2026-04-21 20:55 | 32.77340 | 135.57148 | 38050 ft | 456 kts | 213° |
| 2026-04-21 20:56 | 32.71692 | 135.53698 | 38056 ft | 456 kts | 213° |
| 2026-04-21 20:56 | 32.66046 | 135.50253 | 38063 ft | 456 kts | 213° |
| 2026-04-21 20:57 | 32.60398 | 135.46813 | 38058 ft | 456 kts | 213° |
| 2026-04-21 20:57 | 32.54759 | 135.43383 | 38057 ft | 455 kts | 213° |
| 2026-04-21 20:58 | 32.49142 | 135.39970 | 38058 ft | 455 kts | 213° |
| 2026-04-21 20:58 | 32.43507 | 135.36552 | 38031 ft | 455 kts | 212° |
| 2026-04-21 20:59 | 32.37844 | 135.33122 | 38049 ft | 455 kts | 212° |
| 2026-04-21 20:59 | 32.32231 | 135.29726 | 38051 ft | 455 kts | 212° |
| 2026-04-21 21:00 | 32.26602 | 135.26325 | 38051 ft | 455 kts | 212° |
| 2026-04-21 21:00 | 32.20957 | 135.22919 | 38047 ft | 455 kts | 212° |
| 2026-04-21 21:01 | 32.15340 | 135.19534 | 38037 ft | 455 kts | 212° |
| 2026-04-21 21:01 | 32.10033 | 135.15606 | 38047 ft | 446 kts | 224° |
| 2026-04-21 21:02 | 32.05665 | 135.10493 | 38035 ft | 438 kts | 236° |
| 2026-04-21 21:02 | 32.01981 | 135.04827 | 38043 ft | 438 kts | 237° |
| 2026-04-21 21:03 | 31.98290 | 134.99092 | 38041 ft | 439 kts | 237° |
| 2026-04-21 21:03 | 31.94569 | 134.93364 | 38036 ft | 440 kts | 236° |
| 2026-04-21 21:04 | 31.90847 | 134.87675 | 38033 ft | 441 kts | 236° |
| 2026-04-21 21:04 | 31.87088 | 134.81951 | 38036 ft | 441 kts | 236° |
| 2026-04-21 21:05 | 31.83326 | 134.76229 | 38038 ft | 441 kts | 236° |
| 2026-04-21 21:05 | 31.79586 | 134.70550 | 38038 ft | 441 kts | 236° |
| 2026-04-21 21:06 | 31.75825 | 134.64847 | 38040 ft | 441 kts | 236° |
| 2026-04-21 21:06 | 31.72058 | 134.59142 | 38043 ft | 441 kts | 236° |
| 2026-04-21 21:07 | 31.68307 | 134.53469 | 38040 ft | 441 kts | 236° |
| 2026-04-21 21:07 | 31.64534 | 134.47772 | 38044 ft | 441 kts | 236° |
| 2026-04-21 21:08 | 31.60758 | 134.42079 | 38053 ft | 441 kts | 236° |
| 2026-04-21 21:08 | 31.57006 | 134.36429 | 38026 ft | 441 kts | 236° |
| 2026-04-21 21:09 | 31.53223 | 134.30743 | 38041 ft | 441 kts | 236° |
| 2026-04-21 21:09 | 31.49445 | 134.25073 | 38044 ft | 441 kts | 236° |
| 2026-04-21 21:10 | 31.45667 | 134.19410 | 38028 ft | 441 kts | 236° |
| 2026-04-21 21:10 | 31.41907 | 134.13782 | 38042 ft | 441 kts | 236° |
| 2026-04-21 21:11 | 31.38121 | 134.08123 | 38042 ft | 441 kts | 236° |
| 2026-04-21 21:11 | 31.34345 | 134.02488 | 38046 ft | 441 kts | 236° |
| 2026-04-21 21:12 | 31.30542 | 133.96822 | 38035 ft | 441 kts | 236° |
| 2026-04-21 21:12 | 31.26763 | 133.91198 | 38038 ft | 442 kts | 236° |
| 2026-04-21 21:13 | 31.22957 | 133.85542 | 38039 ft | 442 kts | 236° |
| 2026-04-21 21:13 | 31.19153 | 133.79898 | 38030 ft | 442 kts | 236° |
| 2026-04-21 21:14 | 31.15340 | 133.74250 | 38041 ft | 442 kts | 236° |
| 2026-04-21 21:14 | 31.11519 | 133.68595 | 38041 ft | 443 kts | 236° |
| 2026-04-21 21:15 | 31.07704 | 133.62958 | 38032 ft | 443 kts | 236° |
| 2026-04-21 21:15 | 31.03907 | 133.57356 | 38037 ft | 443 kts | 236° |
| 2026-04-21 21:16 | 31.00080 | 133.51717 | 38039 ft | 443 kts | 236° |
| 2026-04-21 21:16 | 30.96231 | 133.46050 | 38020 ft | 444 kts | 236° |
| 2026-04-21 21:17 | 30.92401 | 133.40418 | 38036 ft | 444 kts | 236° |
| 2026-04-21 21:17 | 30.88591 | 133.34821 | 38035 ft | 444 kts | 236° |
| 2026-04-21 21:18 | 30.84723 | 133.29149 | 38046 ft | 444 kts | 236° |
| 2026-04-21 21:18 | 30.80894 | 133.23542 | 38040 ft | 444 kts | 236° |
| 2026-04-21 21:19 | 30.77055 | 133.17927 | 38031 ft | 444 kts | 236° |
| 2026-04-21 21:19 | 30.73197 | 133.12293 | 38037 ft | 444 kts | 236° |
| 2026-04-21 21:20 | 30.69346 | 133.06678 | 38025 ft | 444 kts | 236° |
| 2026-04-21 21:20 | 30.65495 | 133.01069 | 38037 ft | 444 kts | 235° |
| 2026-04-21 21:21 | 30.61644 | 132.95470 | 38035 ft | 444 kts | 235° |
| 2026-04-21 21:21 | 30.57779 | 132.89858 | 38034 ft | 445 kts | 235° |
| 2026-04-21 21:22 | 30.53927 | 132.84272 | 38036 ft | 445 kts | 235° |
| 2026-04-21 21:22 | 30.50066 | 132.78682 | 38037 ft | 445 kts | 235° |
| 2026-04-21 21:23 | 30.46179 | 132.73062 | 38039 ft | 445 kts | 235° |
| 2026-04-21 21:23 | 30.42315 | 132.67483 | 38025 ft | 445 kts | 235° |
| 2026-04-21 21:24 | 30.38426 | 132.61876 | 38034 ft | 445 kts | 235° |
| 2026-04-21 21:24 | 30.34568 | 132.56320 | 38032 ft | 445 kts | 235° |
| 2026-04-21 21:25 | 30.31320 | 132.51650 | 38023 ft | 445 kts | 235° |
| 2026-04-21 21:25 | 30.26808 | 132.45170 | 38033 ft | 444 kts | 235° |
| 2026-04-21 21:26 | 30.22920 | 132.39596 | 38029 ft | 444 kts | 235° |
| 2026-04-21 21:26 | 30.19042 | 132.34044 | 38030 ft | 444 kts | 235° |
| 2026-04-21 21:27 | 30.15805 | 132.29415 | 38020 ft | 444 kts | 234° |
| 2026-04-21 21:27 | 30.11925 | 132.23873 | 38030 ft | 444 kts | 234° |
| 2026-04-21 21:28 | 30.08050 | 132.18347 | 38031 ft | 444 kts | 234° |
| 2026-04-21 21:29 | 30.02208 | 132.10032 | 38015 ft | 444 kts | 234° |
| 2026-04-21 21:29 | 29.98321 | 132.04512 | 38024 ft | 443 kts | 234° |
| 2026-04-21 21:30 | 29.94441 | 131.99004 | 38022 ft | 444 kts | 234° |
| 2026-04-21 21:30 | 29.90532 | 131.93460 | 38011 ft | 444 kts | 234° |
| 2026-04-21 21:31 | 29.86654 | 131.87968 | 38027 ft | 444 kts | 234° |
| 2026-04-21 21:31 | 29.82739 | 131.82431 | 38024 ft | 444 kts | 234° |
| 2026-04-21 21:32 | 29.78821 | 131.77001 | 38027 ft | 444 kts | 233° |
| 2026-04-21 21:32 | 29.74786 | 131.71571 | 38007 ft | 444 kts | 233° |
| 2026-04-21 21:33 | 29.70777 | 131.66189 | 38021 ft | 444 kts | 233° |
| 2026-04-21 21:33 | 29.66767 | 131.60786 | 38023 ft | 445 kts | 233° |
| 2026-04-21 21:34 | 29.62741 | 131.55361 | 38007 ft | 445 kts | 233° |
| 2026-04-21 21:34 | 29.58738 | 131.49972 | 38028 ft | 445 kts | 233° |
| 2026-04-21 21:35 | 29.54701 | 131.44545 | 38032 ft | 445 kts | 233° |
| 2026-04-21 21:35 | 29.50674 | 131.39140 | 38010 ft | 446 kts | 233° |
| 2026-04-21 21:36 | 29.46658 | 131.33755 | 38014 ft | 446 kts | 233° |
| 2026-04-21 21:36 | 29.42610 | 131.28333 | 38012 ft | 445 kts | 233° |
| 2026-04-21 21:37 | 29.38569 | 131.22930 | 38016 ft | 445 kts | 233° |
| 2026-04-21 21:37 | 29.34553 | 131.17569 | 38009 ft | 445 kts | 233° |
| 2026-04-21 21:38 | 29.30510 | 131.12178 | 38016 ft | 445 kts | 232° |
| 2026-04-21 21:38 | 29.26462 | 131.06787 | 38003 ft | 445 kts | 232° |
| 2026-04-21 21:39 | 29.22433 | 131.01427 | 38008 ft | 446 kts | 232° |
| 2026-04-21 21:39 | 29.18380 | 130.96044 | 38010 ft | 446 kts | 232° |
| 2026-04-21 21:40 | 29.14344 | 130.90688 | 38015 ft | 446 kts | 232° |
| 2026-04-21 21:40 | 29.10281 | 130.85305 | 38009 ft | 447 kts | 232° |
| 2026-04-21 21:41 | 29.06207 | 130.79917 | 38004 ft | 447 kts | 232° |
| 2026-04-21 21:41 | 29.02160 | 130.74571 | 37995 ft | 447 kts | 232° |
| 2026-04-21 21:42 | 28.98085 | 130.69196 | 38011 ft | 447 kts | 232° |
| 2026-04-21 21:42 | 28.94008 | 130.63824 | 38006 ft | 447 kts | 232° |
| 2026-04-21 21:43 | 28.89933 | 130.58462 | 38009 ft | 447 kts | 232° |
| 2026-04-21 21:43 | 28.85884 | 130.53139 | 38004 ft | 446 kts | 232° |
| 2026-04-21 21:44 | 28.81803 | 130.47781 | 38009 ft | 446 kts | 232° |
| 2026-04-21 21:44 | 28.77754 | 130.42472 | 38005 ft | 446 kts | 232° |
| 2026-04-21 21:45 | 28.73681 | 130.37143 | 37991 ft | 445 kts | 232° |
| 2026-04-21 21:45 | 28.69632 | 130.31851 | 38004 ft | 444 kts | 232° |
| 2026-04-21 21:46 | 28.65575 | 130.26553 | 38004 ft | 443 kts | 232° |
| 2026-04-21 21:46 | 28.61521 | 130.21262 | 38003 ft | 442 kts | 232° |
| 2026-04-21 21:47 | 28.57494 | 130.16015 | 38001 ft | 442 kts | 232° |
| 2026-04-21 21:47 | 28.53445 | 130.10746 | 37998 ft | 441 kts | 232° |
| 2026-04-21 21:48 | 28.49405 | 130.05498 | 37996 ft | 440 kts | 232° |
| 2026-04-21 21:48 | 28.45402 | 130.00305 | 37999 ft | 440 kts | 232° |
| 2026-04-21 21:49 | 28.41368 | 129.95078 | 37991 ft | 439 kts | 232° |
| 2026-04-21 21:49 | 28.37339 | 129.89864 | 37995 ft | 438 kts | 232° |
| 2026-04-21 21:50 | 28.33319 | 129.84665 | 37992 ft | 438 kts | 232° |
| 2026-04-21 21:50 | 28.29295 | 129.79469 | 38001 ft | 438 kts | 232° |
| 2026-04-21 21:51 | 28.25285 | 129.74297 | 37989 ft | 438 kts | 232° |
| 2026-04-21 21:51 | 28.21251 | 129.69101 | 37981 ft | 438 kts | 232° |
| 2026-04-21 21:52 | 28.17244 | 129.63946 | 37998 ft | 439 kts | 232° |
| 2026-04-21 21:52 | 28.13194 | 129.58743 | 37990 ft | 439 kts | 232° |
| 2026-04-21 21:53 | 28.09144 | 129.53546 | 37997 ft | 439 kts | 232° |
| 2026-04-21 21:53 | 28.05094 | 129.48354 | 38002 ft | 439 kts | 232° |
| 2026-04-21 21:54 | 28.01066 | 129.43198 | 37996 ft | 440 kts | 232° |
| 2026-04-21 21:54 | 27.97003 | 129.38003 | 37999 ft | 440 kts | 232° |
| 2026-04-21 21:55 | 27.92941 | 129.32816 | 37997 ft | 441 kts | 232° |
| 2026-04-21 21:55 | 27.88880 | 129.27635 | 37996 ft | 441 kts | 232° |
| 2026-04-21 21:56 | 27.84804 | 129.22441 | 37995 ft | 442 kts | 232° |
| 2026-04-21 21:56 | 27.80719 | 129.17239 | 37995 ft | 442 kts | 232° |
| 2026-04-21 21:57 | 27.76646 | 129.12064 | 37998 ft | 441 kts | 231° |
| 2026-04-21 21:57 | 27.72559 | 129.06880 | 37992 ft | 442 kts | 232° |
| 2026-04-21 21:58 | 27.68492 | 129.01725 | 37988 ft | 442 kts | 232° |
| 2026-04-21 21:58 | 27.64396 | 128.96538 | 37991 ft | 442 kts | 231° |
| 2026-04-21 21:59 | 27.60313 | 128.91372 | 37982 ft | 443 kts | 231° |
| 2026-04-21 21:59 | 27.56209 | 128.86185 | 37978 ft | 443 kts | 231° |
| 2026-04-21 22:00 | 27.52100 | 128.80996 | 37968 ft | 444 kts | 231° |
| 2026-04-21 22:00 | 27.47981 | 128.75798 | 37967 ft | 444 kts | 231° |
| 2026-04-21 22:01 | 27.43920 | 128.70566 | 37973 ft | 442 kts | 235° |
| 2026-04-21 22:01 | 27.40581 | 128.64850 | 37997 ft | 439 kts | 242° |
| 2026-04-21 22:02 | 27.37504 | 128.58918 | 37995 ft | 440 kts | 242° |
| 2026-04-21 22:02 | 27.34392 | 128.52969 | 37651 ft | 442 kts | 242° |
| 2026-04-21 22:02 | 27.32825 | 128.49986 | 37048 ft | 442 kts | 242° |
| 2026-04-21 22:03 | 27.31254 | 128.47005 | 36333 ft | 440 kts | 242° |
| 2026-04-21 22:03 | 27.29691 | 128.44041 | 35597 ft | 440 kts | 241° |
| 2026-04-21 22:03 | 27.28143 | 128.41109 | 34770 ft | 442 kts | 241° |
| 2026-04-21 22:03 | 27.26571 | 128.38130 | 33882 ft | 445 kts | 241° |
| 2026-04-21 22:04 | 27.24980 | 128.35118 | 32809 ft | 449 kts | 241° |
| 2026-04-21 22:04 | 27.23381 | 128.32092 | 31896 ft | 450 kts | 241° |
| 2026-04-21 22:04 | 27.21775 | 128.29056 | 30932 ft | 452 kts | 241° |
| 2026-04-21 22:04 | 27.20188 | 128.26057 | 30185 ft | 449 kts | 241° |
| 2026-04-21 22:05 | 27.18619 | 128.23098 | 29365 ft | 432 kts | 241° |
| 2026-04-21 22:05 | 27.17086 | 128.20208 | 28673 ft | 429 kts | 241° |
| 2026-04-21 22:05 | 27.15565 | 128.17337 | 28020 ft | 426 kts | 241° |
| 2026-04-21 22:05 | 27.14052 | 128.14483 | 27379 ft | 423 kts | 241° |
| 2026-04-21 22:06 | 27.12550 | 128.11656 | 26748 ft | 420 kts | 241° |
| 2026-04-21 22:06 | 27.11071 | 128.08880 | 26118 ft | 418 kts | 241° |
| 2026-04-21 22:06 | 27.09575 | 128.06089 | 25500 ft | 416 kts | 241° |
| 2026-04-21 22:06 | 27.08082 | 128.03308 | 24848 ft | 414 kts | 241° |
| 2026-04-21 22:07 | 27.06599 | 128.00544 | 24235 ft | 413 kts | 241° |
| 2026-04-21 22:07 | 27.05117 | 127.97783 | 23619 ft | 412 kts | 241° |
| 2026-04-21 22:07 | 27.03603 | 127.95058 | 22879 ft | 407 kts | 236° |
| 2026-04-21 22:07 | 27.01615 | 127.92848 | 22238 ft | 412 kts | 219° |
| 2026-04-21 22:08 | 26.99073 | 127.91330 | 21652 ft | 416 kts | 205° |
| 2026-04-21 22:08 | 26.96288 | 127.90435 | 21081 ft | 420 kts | 192° |
| 2026-04-21 22:08 | 26.93366 | 127.90316 | 20502 ft | 419 kts | 182° |
| 2026-04-21 22:08 | 26.90452 | 127.90438 | 19923 ft | 417 kts | 181° |
| 2026-04-21 22:09 | 26.87552 | 127.90586 | 19347 ft | 416 kts | 181° |
| 2026-04-21 22:09 | 26.84666 | 127.90726 | 18747 ft | 415 kts | 181° |
| 2026-04-21 22:09 | 26.81777 | 127.90847 | 18127 ft | 414 kts | 181° |
| 2026-04-21 22:09 | 26.78932 | 127.90950 | 17495 ft | 412 kts | 181° |
| 2026-04-21 22:10 | 26.76064 | 127.91044 | 16890 ft | 410 kts | 182° |
| 2026-04-21 22:10 | 26.73218 | 127.91130 | 16307 ft | 407 kts | 182° |
| 2026-04-21 22:10 | 26.70405 | 127.91212 | 15916 ft | 398 kts | 182° |
| 2026-04-21 22:10 | 26.67792 | 127.91294 | 15590 ft | 366 kts | 182° |
| 2026-04-21 22:11 | 26.65298 | 127.91372 | 14877 ft | 351 kts | 182° |
| 2026-04-21 22:11 | 26.62866 | 127.91439 | 14083 ft | 352 kts | 182° |
| 2026-04-21 22:11 | 26.60391 | 127.91507 | 13560 ft | 357 kts | 182° |
| 2026-04-21 22:11 | 26.57918 | 127.91574 | 13208 ft | 353 kts | 182° |
| 2026-04-21 22:12 | 26.55488 | 127.91644 | 12911 ft | 346 kts | 182° |
| 2026-04-21 22:12 | 26.53086 | 127.91713 | 12491 ft | 344 kts | 181° |
| 2026-04-21 22:12 | 26.50690 | 127.91781 | 12058 ft | 343 kts | 181° |
| 2026-04-21 22:12 | 26.48393 | 127.91850 | 11754 ft | 318 kts | 181° |
| 2026-04-21 22:13 | 26.46249 | 127.91914 | 11294 ft | 310 kts | 181° |
| 2026-04-21 22:13 | 26.44104 | 127.91975 | 11119 ft | 306 kts | 181° |
| 2026-04-21 22:13 | 26.41975 | 127.92036 | 11034 ft | 306 kts | 181° |
| 2026-04-21 22:13 | 26.39859 | 127.92071 | 11019 ft | 300 kts | 186° |
| 2026-04-21 22:14 | 26.37846 | 127.91529 | 10751 ft | 301 kts | 207° |
| 2026-04-21 22:14 | 26.35940 | 127.90519 | 10392 ft | 305 kts | 208° |
| 2026-04-21 22:14 | 26.34018 | 127.89498 | 9992 ft | 307 kts | 208° |
| 2026-04-21 22:14 | 26.32085 | 127.88483 | 9575 ft | 307 kts | 207° |
| 2026-04-21 22:15 | 26.30193 | 127.87500 | 9132 ft | 291 kts | 207° |
| 2026-04-21 22:15 | 26.28418 | 127.86586 | 8814 ft | 271 kts | 207° |
| 2026-04-21 22:15 | 26.26767 | 127.85739 | 8488 ft | 255 kts | 207° |
| 2026-04-21 22:15 | 26.25174 | 127.84922 | 8156 ft | 248 kts | 207° |
| 2026-04-21 22:16 | 26.23648 | 127.84140 | 7847 ft | 242 kts | 206° |
| 2026-04-21 22:16 | 26.22118 | 127.83356 | 7570 ft | 245 kts | 206° |
| 2026-04-21 22:16 | 26.20561 | 127.82559 | 7256 ft | 247 kts | 206° |
| 2026-04-21 22:16 | 26.19003 | 127.81763 | 6937 ft | 246 kts | 206° |
| 2026-04-21 22:17 | 26.17451 | 127.80970 | 6624 ft | 245 kts | 205° |
| 2026-04-21 22:17 | 26.15912 | 127.80185 | 6296 ft | 238 kts | 205° |
| 2026-04-21 22:17 | 26.14445 | 127.79437 | 6019 ft | 226 kts | 205° |
| 2026-04-21 22:17 | 26.13489 | 127.78950 | 5839 ft | 231 kts | 204° |
| 2026-04-21 22:18 | 26.12015 | 127.78198 | 5488 ft | 233 kts | 204° |
| 2026-04-21 22:18 | 26.10545 | 127.77449 | 5187 ft | 231 kts | 204° |
| 2026-04-21 22:18 | 26.09087 | 127.76708 | 4893 ft | 229 kts | 203° |
| 2026-04-21 22:18 | 26.07646 | 127.75975 | 4589 ft | 227 kts | 202° |
| 2026-04-21 22:19 | 26.06237 | 127.75219 | 4277 ft | 222 kts | 211° |
| 2026-04-21 22:19 | 26.05256 | 127.73930 | 3993 ft | 223 kts | 246° |
| 2026-04-21 22:19 | 26.04965 | 127.72210 | 3753 ft | 231 kts | 264° |
| 2026-04-21 22:19 | 26.04894 | 127.70434 | 3456 ft | 231 kts | 265° |
| 2026-04-21 22:20 | 26.04843 | 127.68666 | 3146 ft | 226 kts | 266° |
| 2026-04-21 22:20 | 26.04790 | 127.66954 | 2835 ft | 216 kts | 266° |
| 2026-04-21 22:20 | 26.05067 | 127.65399 | 2553 ft | 198 kts | 298° |
| 2026-04-21 22:20 | 26.06102 | 127.64391 | 2299 ft | 204 kts | 338° |
| 2026-04-21 22:21 | 26.07473 | 127.64019 | 2051 ft | 204 kts | 351° |
| 2026-04-21 22:21 | 26.08877 | 127.63796 | 1762 ft | 202 kts | 355° |
| 2026-04-21 22:21 | 26.10265 | 127.63704 | 1490 ft | 197 kts | 359° |
| 2026-04-21 22:21 | 26.11591 | 127.63649 | 1230 ft | 181 kts | 359° |
| 2026-04-21 22:22 | 26.12778 | 127.63593 | 999 ft | 162 kts | 359° |
| 2026-04-21 22:22 | 26.13853 | 127.63544 | 782 ft | 149 kts | 1° |
| 2026-04-21 22:22 | 26.14904 | 127.63499 | 667 ft | 151 kts | 360° |
| 2026-04-21 22:22 | 26.15930 | 127.63431 | 475 ft | 146 kts | 358° |
| 2026-04-21 22:23 | 26.16935 | 127.63388 | 291 ft | 148 kts | 1° |
| 2026-04-21 22:23 | 26.17989 | 127.63348 | 94 ft | 155 kts | 0° |
| 2026-04-21 22:23 | 26.19036 | 127.63303 | 32 ft | 140 kts | 358° |
| 2026-04-21 22:23 | 26.19783 | 127.63269 | 35 ft | 74 kts | 357° |
| 2026-04-21 22:24 | 26.20162 | 127.63259 | 34 ft | 26 kts | 20° |
| 2026-04-21 22:24 | 26.20211 | 127.63438 | 33 ft | 26 kts | 89° |
| 2026-04-21 22:24 | 26.20221 | 127.63625 | 33 ft | 21 kts | 86° |
| 2026-04-21 22:24 | 26.20229 | 127.63788 | 33 ft | 21 kts | 88° |
| 2026-04-21 22:25 | 26.20232 | 127.63951 | 33 ft | 21 kts | 87° |
| 2026-04-21 22:25 | 26.20238 | 127.64115 | 33 ft | 21 kts | 88° |
| 2026-04-21 22:25 | 26.20244 | 127.64247 | 33 ft | 16 kts | 83° |
| 2026-04-21 22:25 | 26.20311 | 127.64338 | 33 ft | 16 kts | 40° |
| 2026-04-21 22:26 | 26.20339 | 127.64453 | 34 ft | 16 kts | 88° |
| 2026-04-21 22:26 | 26.20342 | 127.64577 | 33 ft | 16 kts | 88° |
| 2026-04-21 22:26 | 26.20387 | 127.64676 | 33 ft | 15 kts | 27° |
| 2026-04-21 22:26 | 26.20481 | 127.64726 | 33 ft | 15 kts | 25° |
| 2026-04-21 22:27 | 26.20583 | 127.64750 | 33 ft | 15 kts | 1° |
| 2026-04-21 22:27 | 26.20633 | 127.64813 | 33 ft | 12 kts | 85° |
| 2026-04-21 22:27 | 26.20665 | 127.64890 | 33 ft | 11 kts | 33° |
| 2026-04-21 22:27 | 26.20702 | 127.64914 | 33 ft | 4 kts | 28° |
| 2026-04-21 22:28 | 26.20704 | 127.64915 | 33 ft | 0 kts | 28° |